sensor_id;sensor_type;location;lat;lon;timestamp;temperature;humidity
16785;DHT22;8509;52.178;5.404;2023-05-07T09:22:38;18.20;99.90
16785;DHT22;8509;52.178;5.404;2023-05-07T09:25:11;18.10;99.90
16785;DHT22;8509;52.178;5.404;2023-05-07T09:27:37;18.20;99.90
16785;DHT22;8509;52.178;5.404;2023-05-07T09:30:06;18.30;99.90
16785;DHT22;8509;52.178;5.404;2023-05-07T09:32:38;18.50;99.90
16785;DHT22;8509;52.178;5.404;2023-05-07T09:35:04;18.60;99.90
16785;DHT22;8509;52.178;5.404;2023-05-07T09:37:31;18.80;99.90
16785;DHT22;8509;52.178;5.404;2023-05-07T09:39:58;19.10;99.90
16785;DHT22;8509;52.178;5.404;2023-05-07T09:42:24;19.40;99.90
16785;DHT22;8509;52.178;5.404;2023-05-07T09:44:52;19.40;99.90
16785;DHT22;8509;52.178;5.404;2023-05-07T09:47:23;19.50;99.90
16785;DHT22;8509;52.178;5.404;2023-05-07T09:49:50;19.40;99.90
16785;DHT22;8509;52.178;5.404;2023-05-07T09:52:18;19.40;99.90
16785;DHT22;8509;52.178;5.404;2023-05-07T09:54:45;19.50;99.90
16785;DHT22;8509;52.178;5.404;2023-05-07T09:57:13;19.70;99.90
16785;DHT22;8509;52.178;5.404;2023-05-07T09:59:42;19.50;99.90
16785;DHT22;8509;52.178;5.404;2023-05-07T10:02:09;19.70;99.90
16785;DHT22;8509;52.178;5.404;2023-05-07T10:04:39;19.70;99.90
16785;DHT22;8509;52.178;5.404;2023-05-07T10:07:06;19.80;99.90
16785;DHT22;8509;52.178;5.404;2023-05-07T10:09:32;20.10;99.90
16785;DHT22;8509;52.178;5.404;2023-05-07T10:11:58;20.00;99.90
16785;DHT22;8509;52.178;5.404;2023-05-07T10:14:25;20.10;99.90
16785;DHT22;8509;52.178;5.404;2023-05-07T10:16:53;20.20;99.90
16785;DHT22;8509;52.178;5.404;2023-05-07T10:19:20;20.30;99.90
16785;DHT22;8509;52.178;5.404;2023-05-07T10:21:55;20.20;99.90
16785;DHT22;8509;52.178;5.404;2023-05-07T10:24:26;20.20;99.90
16785;DHT22;8509;52.178;5.404;2023-05-07T10:26:53;20.40;99.90
16785;DHT22;8509;52.178;5.404;2023-05-07T10:34:42;20.50;99.90
16785;DHT22;8509;52.178;5.404;2023-05-07T10:37:09;20.30;99.90
16785;DHT22;8509;52.178;5.404;2023-05-07T10:39:35;20.10;99.90
16785;DHT22;8509;52.178;5.404;2023-05-07T10:42:13;20.60;99.90
16785;DHT22;8509;52.178;5.404;2023-05-07T10:44:39;20.30;99.90
16785;DHT22;8509;52.178;5.404;2023-05-07T10:47:06;20.20;99.90
16785;DHT22;8509;52.178;5.404;2023-05-07T10:52:22;20.80;99.90
16785;DHT22;8509;52.178;5.404;2023-05-07T10:57:44;21.50;99.90
16785;DHT22;8509;52.178;5.404;2023-05-07T11:05:29;22.00;99.90
16785;DHT22;8509;52.178;5.404;2023-05-07T11:08:02;22.10;99.90
16785;DHT22;8509;52.178;5.404;2023-05-07T11:13:14;21.80;99.90
16785;DHT22;8509;52.178;5.404;2023-05-07T11:15:44;21.40;99.90
16785;DHT22;8509;52.178;5.404;2023-05-07T11:18:12;21.00;99.90
16785;DHT22;8509;52.178;5.404;2023-05-07T11:20:50;21.00;99.90
16785;DHT22;8509;52.178;5.404;2023-05-07T11:26:04;21.10;99.90
16785;DHT22;8509;52.178;5.404;2023-05-07T11:28:30;21.30;99.90
16785;DHT22;8509;52.178;5.404;2023-05-07T11:30:57;21.50;99.90
16785;DHT22;8509;52.178;5.404;2023-05-07T11:33:23;21.70;99.90
16785;DHT22;8509;52.178;5.404;2023-05-07T11:35:52;22.10;99.90
16785;DHT22;8509;52.178;5.404;2023-05-07T11:38:19;22.40;99.90
16785;DHT22;8509;52.178;5.404;2023-05-07T11:40:56;22.60;99.90
16785;DHT22;8509;52.178;5.404;2023-05-07T11:43:22;22.50;99.90
16785;DHT22;8509;52.178;5.404;2023-05-07T11:45:48;21.90;99.90
16785;DHT22;8509;52.178;5.404;2023-05-07T11:48:15;21.70;99.90
16785;DHT22;8509;52.178;5.404;2023-05-07T11:51:00;21.40;99.90
16785;DHT22;8509;52.178;5.404;2023-05-07T11:53:27;21.20;99.90
16785;DHT22;8509;52.178;5.404;2023-05-07T11:55:55;21.00;99.90
16785;DHT22;8509;52.178;5.404;2023-05-07T11:58:23;20.90;99.90
16785;DHT22;8509;52.178;5.404;2023-05-07T12:00:49;21.00;99.90
16785;DHT22;8509;52.178;5.404;2023-05-07T12:03:15;21.20;99.90
16785;DHT22;8509;52.178;5.404;2023-05-07T12:05:41;21.30;99.90
16785;DHT22;8509;52.178;5.404;2023-05-07T12:08:07;21.80;99.90
16785;DHT22;8509;52.178;5.404;2023-05-07T12:10:33;21.50;99.90
16785;DHT22;8509;52.178;5.404;2023-05-07T12:12:59;21.50;99.90
16785;DHT22;8509;52.178;5.404;2023-05-07T12:15:24;21.60;99.90
16785;DHT22;8509;52.178;5.404;2023-05-07T12:17:50;21.70;99.90
16785;DHT22;8509;52.178;5.404;2023-05-07T12:20:17;21.60;99.90
16785;DHT22;8509;52.178;5.404;2023-05-07T12:22:44;21.50;99.90
16785;DHT22;8509;52.178;5.404;2023-05-07T12:25:09;21.20;99.90
16785;DHT22;8509;52.178;5.404;2023-05-07T12:27:37;21.50;99.90
16785;DHT22;8509;52.178;5.404;2023-05-07T12:30:03;21.10;99.90
16785;DHT22;8509;52.178;5.404;2023-05-07T12:32:30;21.40;99.90
16785;DHT22;8509;52.178;5.404;2023-05-07T12:34:56;21.40;99.90
16785;DHT22;8509;52.178;5.404;2023-05-07T12:37:25;21.80;99.90
16785;DHT22;8509;52.178;5.404;2023-05-07T12:42:35;21.60;99.90
16785;DHT22;8509;52.178;5.404;2023-05-07T12:45:08;21.50;99.90
16785;DHT22;8509;52.178;5.404;2023-05-07T12:47:33;21.50;99.90
16785;DHT22;8509;52.178;5.404;2023-05-07T12:49:59;21.60;99.90
16785;DHT22;8509;52.178;5.404;2023-05-07T12:52:25;21.90;99.90
16785;DHT22;8509;52.178;5.404;2023-05-07T12:54:51;21.90;99.90
16785;DHT22;8509;52.178;5.404;2023-05-07T12:57:19;22.00;99.90
16785;DHT22;8509;52.178;5.404;2023-05-07T12:59:45;21.90;99.90
16785;DHT22;8509;52.178;5.404;2023-05-07T13:02:11;21.90;99.90
16785;DHT22;8509;52.178;5.404;2023-05-07T13:04:36;21.70;99.90
16785;DHT22;8509;52.178;5.404;2023-05-07T13:07:02;21.50;99.90
16785;DHT22;8509;52.178;5.404;2023-05-07T13:09:28;21.40;99.90
16785;DHT22;8509;52.178;5.404;2023-05-07T13:11:58;21.50;99.90
16785;DHT22;8509;52.178;5.404;2023-05-07T13:14:26;21.90;99.90
16785;DHT22;8509;52.178;5.404;2023-05-07T13:16:52;21.90;99.90
16785;DHT22;8509;52.178;5.404;2023-05-07T13:19:17;22.10;99.90
16785;DHT22;8509;52.178;5.404;2023-05-07T13:21:43;22.20;99.90
16785;DHT22;8509;52.178;5.404;2023-05-07T13:24:09;22.50;99.90
16785;DHT22;8509;52.178;5.404;2023-05-07T13:26:34;22.30;99.90
16785;DHT22;8509;52.178;5.404;2023-05-07T13:29:00;22.30;99.90
16785;DHT22;8509;52.178;5.404;2023-05-07T13:31:25;22.60;99.90
16785;DHT22;8509;52.178;5.404;2023-05-07T13:33:51;23.10;99.90
16785;DHT22;8509;52.178;5.404;2023-05-07T13:36:18;23.20;99.90
16785;DHT22;8509;52.178;5.404;2023-05-07T13:38:43;23.10;99.90
16785;DHT22;8509;52.178;5.404;2023-05-07T13:41:09;23.00;99.90
16785;DHT22;8509;52.178;5.404;2023-05-07T13:43:35;23.40;99.90
16785;DHT22;8509;52.178;5.404;2023-05-07T13:46:00;23.60;99.90
16785;DHT22;8509;52.178;5.404;2023-05-07T13:48:26;24.10;99.90
16785;DHT22;8509;52.178;5.404;2023-05-07T13:50:53;24.20;99.90
16785;DHT22;8509;52.178;5.404;2023-05-07T13:53:19;24.20;99.90
16785;DHT22;8509;52.178;5.404;2023-05-07T13:55:45;24.00;99.90
16785;DHT22;8509;52.178;5.404;2023-05-07T13:58:11;24.00;99.90
16785;DHT22;8509;52.178;5.404;2023-05-07T14:00:37;23.90;99.90
16785;DHT22;8509;52.178;5.404;2023-05-07T14:03:04;23.70;99.90
16785;DHT22;8509;52.178;5.404;2023-05-07T14:05:30;23.70;99.90
16785;DHT22;8509;52.178;5.404;2023-05-07T14:07:57;23.40;99.90
16785;DHT22;8509;52.178;5.404;2023-05-07T14:10:23;23.20;99.90
16785;DHT22;8509;52.178;5.404;2023-05-07T14:12:48;22.90;99.90
16785;DHT22;8509;52.178;5.404;2023-05-07T14:15:15;23.10;99.90
16785;DHT22;8509;52.178;5.404;2023-05-07T14:17:42;23.00;99.90
16785;DHT22;8509;52.178;5.404;2023-05-07T14:20:10;23.10;99.90
16785;DHT22;8509;52.178;5.404;2023-05-07T14:22:36;22.90;99.90
16785;DHT22;8509;52.178;5.404;2023-05-07T14:25:02;22.50;99.90
16785;DHT22;8509;52.178;5.404;2023-05-07T14:27:27;22.70;99.90
16785;DHT22;8509;52.178;5.404;2023-05-07T14:30:06;22.60;99.90
16785;DHT22;8509;52.178;5.404;2023-05-07T14:32:37;22.50;99.90
16785;DHT22;8509;52.178;5.404;2023-05-07T14:35:03;22.30;99.90
16785;DHT22;8509;52.178;5.404;2023-05-07T14:37:28;22.10;99.90
16785;DHT22;8509;52.178;5.404;2023-05-07T14:39:54;22.10;99.90
16785;DHT22;8509;52.178;5.404;2023-05-07T14:42:20;22.00;99.90
16785;DHT22;8509;52.178;5.404;2023-05-07T14:44:46;22.00;99.90
16785;DHT22;8509;52.178;5.404;2023-05-07T14:47:13;21.70;99.90
16785;DHT22;8509;52.178;5.404;2023-05-07T14:49:39;21.50;99.90
16785;DHT22;8509;52.178;5.404;2023-05-07T14:52:05;21.30;99.90
16785;DHT22;8509;52.178;5.404;2023-05-07T14:54:33;21.20;99.90
16785;DHT22;8509;52.178;5.404;2023-05-07T14:57:01;20.90;99.90
16785;DHT22;8509;52.178;5.404;2023-05-07T14:59:27;21.00;99.90
16785;DHT22;8509;52.178;5.404;2023-05-07T15:01:52;21.20;99.90
16785;DHT22;8509;52.178;5.404;2023-05-07T15:04:22;21.30;99.90
16785;DHT22;8509;52.178;5.404;2023-05-07T15:06:48;21.30;99.90
16785;DHT22;8509;52.178;5.404;2023-05-07T15:09:14;21.50;99.90
16785;DHT22;8509;52.178;5.404;2023-05-07T15:11:40;21.40;99.90
16785;DHT22;8509;52.178;5.404;2023-05-07T15:14:06;21.40;99.90
16785;DHT22;8509;52.178;5.404;2023-05-07T15:16:33;21.30;99.90
16785;DHT22;8509;52.178;5.404;2023-05-07T15:18:59;21.20;99.90
16785;DHT22;8509;52.178;5.404;2023-05-07T15:21:25;21.20;99.90
16785;DHT22;8509;52.178;5.404;2023-05-07T15:23:52;20.90;99.90
16785;DHT22;8509;52.178;5.404;2023-05-07T15:26:17;20.70;99.90
16785;DHT22;8509;52.178;5.404;2023-05-07T15:28:43;20.50;99.90
16785;DHT22;8509;52.178;5.404;2023-05-07T15:31:08;20.20;99.90
16785;DHT22;8509;52.178;5.404;2023-05-07T15:33:34;20.20;99.90
16785;DHT22;8509;52.178;5.404;2023-05-07T15:36:00;20.20;99.90
16785;DHT22;8509;52.178;5.404;2023-05-07T15:38:26;20.10;99.90
16785;DHT22;8509;52.178;5.404;2023-05-07T15:40:52;19.90;99.90
16785;DHT22;8509;52.178;5.404;2023-05-07T15:43:17;19.60;99.90
16785;DHT22;8509;52.178;5.404;2023-05-07T15:45:43;19.40;99.90
16785;DHT22;8509;52.178;5.404;2023-05-07T15:48:09;19.10;99.90
16785;DHT22;8509;52.178;5.404;2023-05-07T15:50:35;19.00;99.90
16785;DHT22;8509;52.178;5.404;2023-05-07T15:53:01;18.90;99.90
16785;DHT22;8509;52.178;5.404;2023-05-07T15:55:28;18.80;99.90
16785;DHT22;8509;52.178;5.404;2023-05-07T15:57:54;18.60;99.90
16785;DHT22;8509;52.178;5.404;2023-05-07T16:00:20;18.40;99.90
16785;DHT22;8509;52.178;5.404;2023-05-07T16:02:46;18.30;99.90
16785;DHT22;8509;52.178;5.404;2023-05-07T16:05:11;18.10;99.90
16785;DHT22;8509;52.178;5.404;2023-05-07T16:07:38;18.00;99.90
16785;DHT22;8509;52.178;5.404;2023-05-07T16:10:07;17.80;99.90
16785;DHT22;8509;52.178;5.404;2023-05-07T16:12:33;17.70;99.90
16785;DHT22;8509;52.178;5.404;2023-05-07T16:14:59;17.50;99.90
16785;DHT22;8509;52.178;5.404;2023-05-07T16:17:25;17.40;99.90
16785;DHT22;8509;52.178;5.404;2023-05-07T16:19:51;17.20;99.90
16785;DHT22;8509;52.178;5.404;2023-05-07T16:22:17;17.00;99.90
16785;DHT22;8509;52.178;5.404;2023-05-07T16:24:42;16.90;99.90
16785;DHT22;8509;52.178;5.404;2023-05-07T16:27:08;16.80;99.90
16785;DHT22;8509;52.178;5.404;2023-05-07T16:29:33;16.70;99.90
16785;DHT22;8509;52.178;5.404;2023-05-07T16:31:59;16.80;99.90
16785;DHT22;8509;52.178;5.404;2023-05-07T16:34:25;16.80;99.90
16785;DHT22;8509;52.178;5.404;2023-05-07T16:36:50;16.80;99.90
16785;DHT22;8509;52.178;5.404;2023-05-07T16:39:16;16.70;99.90
16785;DHT22;8509;52.178;5.404;2023-05-07T16:41:42;16.60;99.90
16785;DHT22;8509;52.178;5.404;2023-05-07T16:44:08;16.60;99.90
16785;DHT22;8509;52.178;5.404;2023-05-07T16:46:34;16.70;99.90
16785;DHT22;8509;52.178;5.404;2023-05-07T16:49:00;16.60;99.90
16785;DHT22;8509;52.178;5.404;2023-05-07T16:51:26;16.70;99.90
16785;DHT22;8509;52.178;5.404;2023-05-07T16:53:52;16.70;99.90
16785;DHT22;8509;52.178;5.404;2023-05-07T16:56:18;16.70;99.90
16785;DHT22;8509;52.178;5.404;2023-05-07T16:58:44;16.80;99.90
16785;DHT22;8509;52.178;5.404;2023-05-07T17:01:09;16.80;99.90
16785;DHT22;8509;52.178;5.404;2023-05-07T17:03:36;16.80;99.90
16785;DHT22;8509;52.178;5.404;2023-05-07T17:06:02;16.80;99.90
16785;DHT22;8509;52.178;5.404;2023-05-07T17:08:28;16.90;99.90
16785;DHT22;8509;52.178;5.404;2023-05-07T17:10:53;16.90;99.90
16785;DHT22;8509;52.178;5.404;2023-05-07T17:13:19;16.90;99.90
16785;DHT22;8509;52.178;5.404;2023-05-07T17:15:45;16.80;99.90
16785;DHT22;8509;52.178;5.404;2023-05-07T17:18:12;16.90;99.90
16785;DHT22;8509;52.178;5.404;2023-05-07T17:20:38;16.90;99.90
16785;DHT22;8509;52.178;5.404;2023-05-07T17:23:04;17.00;99.90
16785;DHT22;8509;52.178;5.404;2023-05-07T17:25:34;17.10;99.90
16785;DHT22;8509;52.178;5.404;2023-05-07T17:28:01;17.20;99.90
16785;DHT22;8509;52.178;5.404;2023-05-07T17:30:26;17.20;99.90
16785;DHT22;8509;52.178;5.404;2023-05-07T17:32:52;17.20;99.90
16785;DHT22;8509;52.178;5.404;2023-05-07T17:35:20;17.20;99.90
16785;DHT22;8509;52.178;5.404;2023-05-07T17:37:45;17.20;99.90
16785;DHT22;8509;52.178;5.404;2023-05-07T17:40:19;17.20;99.90
16785;DHT22;8509;52.178;5.404;2023-05-07T17:42:49;17.20;99.90
16785;DHT22;8509;52.178;5.404;2023-05-07T17:45:15;17.30;99.90
16785;DHT22;8509;52.178;5.404;2023-05-07T17:47:41;17.30;99.90
16785;DHT22;8509;52.178;5.404;2023-05-07T17:50:08;17.40;99.90
16785;DHT22;8509;52.178;5.404;2023-05-07T17:52:40;17.40;99.90
16785;DHT22;8509;52.178;5.404;2023-05-07T17:55:07;17.40;99.90
16785;DHT22;8509;52.178;5.404;2023-05-07T17:57:33;17.30;99.90
16785;DHT22;8509;52.178;5.404;2023-05-07T18:00:03;17.20;99.90
16785;DHT22;8509;52.178;5.404;2023-05-07T18:02:32;17.30;99.90
16785;DHT22;8509;52.178;5.404;2023-05-07T18:04:57;17.40;99.90
16785;DHT22;8509;52.178;5.404;2023-05-07T18:07:23;17.30;99.90
16785;DHT22;8509;52.178;5.404;2023-05-07T18:09:49;17.30;99.90
16785;DHT22;8509;52.178;5.404;2023-05-07T18:12:14;17.30;99.90
16785;DHT22;8509;52.178;5.404;2023-05-07T18:14:40;17.20;99.90
16785;DHT22;8509;52.178;5.404;2023-05-07T18:17:06;17.20;99.90
16785;DHT22;8509;52.178;5.404;2023-05-07T18:19:31;17.20;99.90
16785;DHT22;8509;52.178;5.404;2023-05-07T18:21:57;17.00;99.90
16785;DHT22;8509;52.178;5.404;2023-05-07T18:24:23;17.00;99.90
16785;DHT22;8509;52.178;5.404;2023-05-07T18:26:50;17.10;99.90
16785;DHT22;8509;52.178;5.404;2023-05-07T18:29:16;17.00;99.90
16785;DHT22;8509;52.178;5.404;2023-05-07T18:31:41;17.10;99.90
16785;DHT22;8509;52.178;5.404;2023-05-07T18:34:07;17.00;99.90
16785;DHT22;8509;52.178;5.404;2023-05-07T18:36:35;16.90;99.90
16785;DHT22;8509;52.178;5.404;2023-05-07T18:39:00;16.90;99.90
16785;DHT22;8509;52.178;5.404;2023-05-07T18:41:26;16.80;99.90
16785;DHT22;8509;52.178;5.404;2023-05-07T18:43:53;16.70;99.90
16785;DHT22;8509;52.178;5.404;2023-05-07T18:46:20;16.70;99.90
16785;DHT22;8509;52.178;5.404;2023-05-07T18:48:46;16.60;99.90
16785;DHT22;8509;52.178;5.404;2023-05-07T18:51:11;16.50;99.90
16785;DHT22;8509;52.178;5.404;2023-05-07T18:53:40;16.60;99.90
16785;DHT22;8509;52.178;5.404;2023-05-07T18:56:06;16.50;99.90
16785;DHT22;8509;52.178;5.404;2023-05-07T18:58:33;16.50;99.90
16785;DHT22;8509;52.178;5.404;2023-05-07T19:01:00;16.50;99.90
16785;DHT22;8509;52.178;5.404;2023-05-07T19:03:26;16.40;99.90
16785;DHT22;8509;52.178;5.404;2023-05-07T19:05:52;16.40;99.90
16785;DHT22;8509;52.178;5.404;2023-05-07T19:08:19;16.40;99.90
16785;DHT22;8509;52.178;5.404;2023-05-07T19:10:45;16.30;99.90
16785;DHT22;8509;52.178;5.404;2023-05-07T19:13:10;16.20;99.90
16785;DHT22;8509;52.178;5.404;2023-05-07T19:15:36;16.20;99.90
16785;DHT22;8509;52.178;5.404;2023-05-07T19:18:02;16.10;99.90
16785;DHT22;8509;52.178;5.404;2023-05-07T19:20:28;16.00;99.90
16785;DHT22;8509;52.178;5.404;2023-05-07T19:22:54;16.00;99.90
16785;DHT22;8509;52.178;5.404;2023-05-07T19:25:19;15.90;99.90
16785;DHT22;8509;52.178;5.404;2023-05-07T19:27:45;15.80;99.90
16785;DHT22;8509;52.178;5.404;2023-05-07T19:30:12;15.70;99.90
16785;DHT22;8509;52.178;5.404;2023-05-07T19:32:38;15.60;99.90
16785;DHT22;8509;52.178;5.404;2023-05-07T19:35:04;15.60;99.90
16785;DHT22;8509;52.178;5.404;2023-05-07T19:37:29;15.50;99.90
16785;DHT22;8509;52.178;5.404;2023-05-07T19:39:55;15.50;99.90
16785;DHT22;8509;52.178;5.404;2023-05-07T19:42:21;15.50;99.90
16785;DHT22;8509;52.178;5.404;2023-05-07T19:44:47;15.50;99.90
16785;DHT22;8509;52.178;5.404;2023-05-07T19:47:12;15.50;99.90
16785;DHT22;8509;52.178;5.404;2023-05-07T19:49:38;15.40;99.90
16785;DHT22;8509;52.178;5.404;2023-05-07T19:52:04;15.40;99.90
16785;DHT22;8509;52.178;5.404;2023-05-07T19:54:30;15.30;99.90
16785;DHT22;8509;52.178;5.404;2023-05-07T19:56:56;15.20;99.90
16785;DHT22;8509;52.178;5.404;2023-05-07T19:59:22;15.30;99.90
16785;DHT22;8509;52.178;5.404;2023-05-07T20:01:48;15.30;99.90
16785;DHT22;8509;52.178;5.404;2023-05-07T20:04:13;15.30;99.90
16785;DHT22;8509;52.178;5.404;2023-05-07T20:06:39;15.30;99.90
16785;DHT22;8509;52.178;5.404;2023-05-07T20:09:05;15.30;99.90
16785;DHT22;8509;52.178;5.404;2023-05-07T20:11:34;15.30;99.90
16785;DHT22;8509;52.178;5.404;2023-05-07T20:14:00;15.20;99.90
16785;DHT22;8509;52.178;5.404;2023-05-07T20:16:26;15.20;99.90
16785;DHT22;8509;52.178;5.404;2023-05-07T20:18:51;15.20;99.90
16785;DHT22;8509;52.178;5.404;2023-05-07T20:21:17;15.20;99.90
16785;DHT22;8509;52.178;5.404;2023-05-07T20:23:43;15.20;99.90
16785;DHT22;8509;52.178;5.404;2023-05-07T20:26:08;15.10;99.90
16785;DHT22;8509;52.178;5.404;2023-05-07T20:28:34;15.20;99.90
16785;DHT22;8509;52.178;5.404;2023-05-07T20:31:00;15.10;99.90
16785;DHT22;8509;52.178;5.404;2023-05-07T20:33:26;15.10;99.90
16785;DHT22;8509;52.178;5.404;2023-05-07T20:35:51;15.00;99.90
16785;DHT22;8509;52.178;5.404;2023-05-07T20:38:17;14.90;99.90
16785;DHT22;8509;52.178;5.404;2023-05-07T20:40:43;14.90;99.90
16785;DHT22;8509;52.178;5.404;2023-05-07T20:43:08;14.80;99.90
16785;DHT22;8509;52.178;5.404;2023-05-07T20:45:34;14.80;99.90
16785;DHT22;8509;52.178;5.404;2023-05-07T20:48:00;14.80;99.90
16785;DHT22;8509;52.178;5.404;2023-05-07T20:50:26;14.80;99.90
16785;DHT22;8509;52.178;5.404;2023-05-07T20:52:52;14.70;99.90
16785;DHT22;8509;52.178;5.404;2023-05-07T20:55:17;14.70;99.90
16785;DHT22;8509;52.178;5.404;2023-05-07T20:57:43;14.70;99.90
16785;DHT22;8509;52.178;5.404;2023-05-07T21:00:09;14.70;99.90
16785;DHT22;8509;52.178;5.404;2023-05-07T21:02:35;14.60;99.90
16785;DHT22;8509;52.178;5.404;2023-05-07T21:05:01;14.60;99.90
16785;DHT22;8509;52.178;5.404;2023-05-07T21:07:28;14.60;99.90
16785;DHT22;8509;52.178;5.404;2023-05-07T21:09:53;14.60;99.90
16785;DHT22;8509;52.178;5.404;2023-05-07T21:12:21;14.60;99.90
16785;DHT22;8509;52.178;5.404;2023-05-07T21:14:47;14.60;99.90
16785;DHT22;8509;52.178;5.404;2023-05-07T21:17:13;14.60;99.90
16785;DHT22;8509;52.178;5.404;2023-05-07T21:19:38;14.60;99.90
16785;DHT22;8509;52.178;5.404;2023-05-07T21:22:04;14.60;99.90
16785;DHT22;8509;52.178;5.404;2023-05-07T21:24:30;14.40;99.90
16785;DHT22;8509;52.178;5.404;2023-05-07T21:26:57;14.50;99.90
16785;DHT22;8509;52.178;5.404;2023-05-07T21:29:24;14.50;99.90
16785;DHT22;8509;52.178;5.404;2023-05-07T21:31:51;14.50;99.90
16785;DHT22;8509;52.178;5.404;2023-05-07T21:34:16;14.50;99.90
16785;DHT22;8509;52.178;5.404;2023-05-07T21:36:42;14.40;99.90
16785;DHT22;8509;52.178;5.404;2023-05-07T21:39:08;14.50;99.90
16785;DHT22;8509;52.178;5.404;2023-05-07T21:41:34;14.40;99.90
16785;DHT22;8509;52.178;5.404;2023-05-07T21:44:01;14.50;99.90
16785;DHT22;8509;52.178;5.404;2023-05-07T21:46:27;14.40;99.90
16785;DHT22;8509;52.178;5.404;2023-05-07T21:48:52;14.40;99.90
16785;DHT22;8509;52.178;5.404;2023-05-07T21:51:18;14.40;99.90
16785;DHT22;8509;52.178;5.404;2023-05-07T21:53:43;14.20;99.90
16785;DHT22;8509;52.178;5.404;2023-05-07T21:56:09;14.30;99.90
16785;DHT22;8509;52.178;5.404;2023-05-07T21:58:35;14.20;99.90
16785;DHT22;8509;52.178;5.404;2023-05-07T22:01:00;14.20;99.90
16785;DHT22;8509;52.178;5.404;2023-05-07T22:03:26;14.20;99.90
16785;DHT22;8509;52.178;5.404;2023-05-07T22:05:52;14.10;99.90
16785;DHT22;8509;52.178;5.404;2023-05-07T22:08:17;14.20;99.90
16785;DHT22;8509;52.178;5.404;2023-05-07T22:10:43;14.00;99.90
16785;DHT22;8509;52.178;5.404;2023-05-07T22:13:09;14.00;99.90
16785;DHT22;8509;52.178;5.404;2023-05-07T22:15:34;14.00;99.90
16785;DHT22;8509;52.178;5.404;2023-05-07T22:18:00;14.00;99.90
16785;DHT22;8509;52.178;5.404;2023-05-07T22:20:26;13.90;99.90
16785;DHT22;8509;52.178;5.404;2023-05-07T22:22:53;13.90;99.90
16785;DHT22;8509;52.178;5.404;2023-05-07T22:25:23;13.90;99.90
16785;DHT22;8509;52.178;5.404;2023-05-07T22:27:49;13.90;99.90
16785;DHT22;8509;52.178;5.404;2023-05-07T22:30:15;13.90;99.90
16785;DHT22;8509;52.178;5.404;2023-05-07T22:32:41;13.90;99.90
16785;DHT22;8509;52.178;5.404;2023-05-07T22:35:08;13.80;99.90
16785;DHT22;8509;52.178;5.404;2023-05-07T22:37:34;13.70;99.90
16785;DHT22;8509;52.178;5.404;2023-05-07T22:39:59;13.80;99.90
16785;DHT22;8509;52.178;5.404;2023-05-07T22:42:25;13.70;99.90
16785;DHT22;8509;52.178;5.404;2023-05-07T22:44:52;13.70;99.90
16785;DHT22;8509;52.178;5.404;2023-05-07T22:47:17;13.70;99.90
16785;DHT22;8509;52.178;5.404;2023-05-07T22:49:43;13.80;99.90
16785;DHT22;8509;52.178;5.404;2023-05-07T22:52:09;13.70;99.90
16785;DHT22;8509;52.178;5.404;2023-05-07T22:54:34;13.70;99.90
16785;DHT22;8509;52.178;5.404;2023-05-07T22:57:00;13.60;99.90
16785;DHT22;8509;52.178;5.404;2023-05-07T22:59:26;13.70;99.90
16785;DHT22;8509;52.178;5.404;2023-05-07T23:01:51;13.70;99.90
16785;DHT22;8509;52.178;5.404;2023-05-07T23:04:17;13.70;99.90
16785;DHT22;8509;52.178;5.404;2023-05-07T23:06:43;13.70;99.90
16785;DHT22;8509;52.178;5.404;2023-05-07T23:09:09;13.60;99.90
16785;DHT22;8509;52.178;5.404;2023-05-07T23:11:34;13.70;99.90
16785;DHT22;8509;52.178;5.404;2023-05-07T23:14:01;13.60;99.90
16785;DHT22;8509;52.178;5.404;2023-05-07T23:16:27;13.60;99.90
16785;DHT22;8509;52.178;5.404;2023-05-07T23:18:53;13.60;99.90
16785;DHT22;8509;52.178;5.404;2023-05-07T23:21:21;13.60;99.90
16785;DHT22;8509;52.178;5.404;2023-05-07T23:23:46;13.50;99.90
16785;DHT22;8509;52.178;5.404;2023-05-07T23:26:13;13.50;99.90
16785;DHT22;8509;52.178;5.404;2023-05-07T23:28:39;13.50;99.90
16785;DHT22;8509;52.178;5.404;2023-05-07T23:31:11;13.40;99.90
16785;DHT22;8509;52.178;5.404;2023-05-07T23:33:40;13.40;99.90
16785;DHT22;8509;52.178;5.404;2023-05-07T23:36:06;13.40;99.90
16785;DHT22;8509;52.178;5.404;2023-05-07T23:38:33;13.40;99.90
16785;DHT22;8509;52.178;5.404;2023-05-07T23:40:58;13.40;99.90
16785;DHT22;8509;52.178;5.404;2023-05-07T23:43:24;13.40;99.90
16785;DHT22;8509;52.178;5.404;2023-05-07T23:45:50;13.40;99.90
16785;DHT22;8509;52.178;5.404;2023-05-07T23:48:16;13.40;99.90
16785;DHT22;8509;52.178;5.404;2023-05-07T23:50:42;13.40;99.90
16785;DHT22;8509;52.178;5.404;2023-05-07T23:53:08;13.20;99.90
16785;DHT22;8509;52.178;5.404;2023-05-07T23:55:34;13.30;99.90
16785;DHT22;8509;52.178;5.404;2023-05-07T23:57:59;13.40;99.90
